Main page
METAR-TAF:

METAR-TAF

Airports :

Juazeiro do Norte Airport

Juazeiro do Norte, Ceará, Brazil

latitude: 07-13-06S, longitude: 039-16-18W, elevation: 424 m

Current weather observation

The report was made 1 hour and 3 minutes ago, at 16:00 UTC
Wind 6 kt from the East/Northeast
Temperature 33°C
Humidity 44%
Pressure 1014 hPa
Visibility 10 km or more
Scattered clouds at a height of 2200 ft

METAR: SBJU 251600Z 07006KT 9999 SCT022 33/19 Q1014

Time: 14:03 (17:03 UTC)


TAF: missing

Weather observations and forecasts of more than 4000 airports (METAR and TAF reports).

The available stations are represented by yellow and red dots on the map.

Hover mouse over dot to see the name of the station.

Then click to see weather observations and forecasts.

To change the map : click on the green buttons with a black cross to zoom in, on the green button with a dash to zoom out, or on the green arrows for adjacent maps.


METAR-TAF: